Time,TemperatureF,DewpointF,PressureIn,WindDirection,WindDirectionDegrees,WindSpeedMPH,WindSpeedGustMPH,Humidity,HourlyPrecipIn,Conditions,Clouds,dailyrainin,SolarRadiationWatts/m^2,SoftwareType,DateUTC
2013-01-08 00:12:00,52.0,43.0,-100.00,NNW,337,8.0,9.0,72,0.00,,,0.00,0.000000,,2013-01-08 10:12:00,
2013-01-08 00:22:00,52.0,43.0,-100.00,NNW,337,8.0,9.0,72,0.00,,,0.00,0.000000,,2013-01-08 10:22:00,
2013-01-08 00:32:00,52.0,43.0,-100.00,NNW,337,8.0,9.0,72,0.00,,,0.00,0.000000,,2013-01-08 10:32:00,
2013-01-08 00:42:00,52.0,43.0,-100.00,NNW,337,8.0,9.0,72,0.00,,,0.00,0.000000,,2013-01-08 10:42:00,
2013-01-08 01:12:00,53.0,38.0,-100.00,North,4,5.0,11.0,56,0.00,,,0.00,0.000000,,2013-01-08 11:12:00,
2013-01-08 01:22:00,53.0,38.0,-100.00,North,4,5.0,11.0,56,0.00,,,0.00,0.000000,,2013-01-08 11:22:00,
2013-01-08 01:32:00,53.0,38.0,-100.00,North,4,5.0,11.0,56,0.00,,,0.00,0.000000,,2013-01-08 11:32:00,
2013-01-08 01:42:00,53.0,38.0,-100.00,North,4,5.0,11.0,56,0.00,,,0.00,0.000000,,2013-01-08 11:42:00,
2013-01-08 02:12:00,57.0,36.0,-100.00,North,357,9.0,13.0,46,0.00,,,0.00,0.000000,,2013-01-08 12:12:00,
2013-01-08 02:22:00,57.0,36.0,-100.00,North,357,9.0,13.0,46,0.00,,,0.00,0.000000,,2013-01-08 12:22:00,
2013-01-08 02:32:00,57.0,36.0,-100.00,North,357,9.0,13.0,46,0.00,,,0.00,0.000000,,2013-01-08 12:32:00,
2013-01-08 02:42:00,57.0,36.0,-100.00,North,357,9.0,13.0,46,0.00,,,0.00,0.000000,,2013-01-08 12:42:00,
2013-01-08 03:12:00,51.0,37.0,-100.00,North,359,4.0,10.0,58,0.00,,,0.00,0.000000,,2013-01-08 13:12:00,
2013-01-08 03:22:00,51.0,37.0,-100.00,North,359,4.0,10.0,58,0.00,,,0.00,0.000000,,2013-01-08 13:22:00,
2013-01-08 03:32:00,51.0,37.0,-100.00,North,359,4.0,10.0,58,0.00,,,0.00,0.000000,,2013-01-08 13:32:00,
2013-01-08 03:42:00,51.0,37.0,-100.00,North,359,4.0,10.0,58,0.00,,,0.00,0.000000,,2013-01-08 13:42:00,
2013-01-08 04:12:00,50.0,37.0,-100.00,NNW,335,6.0,12.0,61,0.00,,,0.00,0.000000,,2013-01-08 14:12:00,
2013-01-08 04:23:00,50.0,37.0,-100.00,NNW,335,6.0,12.0,61,0.00,,,0.00,0.000000,,2013-01-08 14:23:00,
2013-01-08 04:33:00,50.0,37.0,-100.00,NNW,335,6.0,12.0,61,0.00,,,0.00,0.000000,,2013-01-08 14:33:00,
2013-01-08 04:42:00,50.0,37.0,-100.00,NNW,335,6.0,12.0,61,0.00,,,0.00,0.000000,,2013-01-08 14:42:00,
2013-01-08 05:02:00,50.0,39.0,-100.00,North,356,5.0,10.0,66,0.00,,,0.00,0.000000,,2013-01-08 15:02:00,
2013-01-08 05:12:00,50.0,39.0,-100.00,North,356,5.0,10.0,66,0.00,,,0.00,0.000000,,2013-01-08 15:12:00,
2013-01-08 05:22:00,50.0,39.0,-100.00,North,356,5.0,10.0,66,0.00,,,0.00,0.000000,,2013-01-08 15:22:00,
2013-01-08 05:33:00,50.0,39.0,-100.00,North,356,5.0,10.0,66,0.00,,,0.00,0.000000,,2013-01-08 15:33:00,
2013-01-08 05:42:00,50.0,39.0,-100.00,North,356,5.0,10.0,66,0.00,,,0.00,0.000000,,2013-01-08 15:42:00,
2013-01-08 06:12:00,50.0,36.0,-100.00,North,1,4.0,10.0,59,0.00,,,0.00,0.000000,,2013-01-08 16:12:00,
2013-01-08 06:22:00,50.0,36.0,-100.00,North,1,4.0,10.0,59,0.00,,,0.00,0.000000,,2013-01-08 16:22:00,
2013-01-08 06:33:00,50.0,36.0,-100.00,North,1,4.0,10.0,59,0.00,,,0.00,0.000000,,2013-01-08 16:33:00,
2013-01-08 06:42:00,50.0,36.0,-100.00,North,1,4.0,10.0,59,0.00,,,0.00,0.000000,,2013-01-08 16:42:00,
2013-01-08 07:12:00,52.0,36.0,-100.00,North,354,7.0,13.0,54,0.00,,,0.00,0.000000,,2013-01-08 17:12:00,
2013-01-08 07:23:00,52.0,36.0,-100.00,North,354,7.0,13.0,54,0.00,,,0.00,0.000000,,2013-01-08 17:23:00,
2013-01-08 07:33:00,52.0,36.0,-100.00,North,354,7.0,13.0,54,0.00,,,0.00,0.000000,,2013-01-08 17:33:00,
2013-01-08 07:42:00,52.0,36.0,-100.00,North,354,7.0,13.0,54,0.00,,,0.00,0.000000,,2013-01-08 17:42:00,
2013-01-08 08:12:00,56.0,38.0,-100.00,North,8,4.0,12.0,51,0.00,,,0.00,42.000000,,2013-01-08 18:12:00,
2013-01-08 08:23:00,56.0,38.0,-100.00,North,8,4.0,12.0,51,0.00,,,0.00,42.000000,,2013-01-08 18:23:00,
2013-01-08 08:33:00,56.0,38.0,-100.00,North,8,4.0,12.0,51,0.00,,,0.00,42.000000,,2013-01-08 18:33:00,
2013-01-08 08:43:00,56.0,38.0,-100.00,North,8,4.0,12.0,51,0.00,,,0.00,42.000000,,2013-01-08 18:43:00,
2013-01-08 09:12:00,70.0,46.0,-100.00,NW,324,4.0,8.0,42,0.00,,,0.00,248.000000,,2013-01-08 19:12:00,
2013-01-08 09:22:00,70.0,46.0,-100.00,NW,324,4.0,8.0,42,0.00,,,0.00,248.000000,,2013-01-08 19:22:00,
2013-01-08 09:32:00,70.0,46.0,-100.00,NW,324,4.0,8.0,42,0.00,,,0.00,248.000000,,2013-01-08 19:32:00,
2013-01-08 09:42:00,70.0,46.0,-100.00,NW,324,4.0,8.0,42,0.00,,,0.00,248.000000,,2013-01-08 19:42:00,
2013-01-08 10:12:00,77.0,46.0,-100.00,NE,55,4.0,15.0,34,0.00,,,0.00,454.000000,,2013-01-08 20:12:00,
2013-01-08 10:22:00,77.0,46.0,-100.00,NE,55,4.0,15.0,34,0.00,,,0.00,454.000000,,2013-01-08 20:22:00,
2013-01-08 10:33:00,77.0,46.0,-100.00,NE,55,4.0,15.0,34,0.00,,,0.00,454.000000,,2013-01-08 20:33:00,
2013-01-08 10:43:00,77.0,46.0,-100.00,NE,55,4.0,15.0,34,0.00,,,0.00,454.000000,,2013-01-08 20:43:00,
2013-01-08 11:12:00,81.0,44.0,-100.00,NE,55,9.0,20.0,27,0.00,,,0.00,625.000000,,2013-01-08 21:12:00,
2013-01-08 11:22:00,81.0,44.0,-100.00,NE,55,9.0,20.0,27,0.00,,,0.00,625.000000,,2013-01-08 21:22:00,
2013-01-08 11:33:00,81.0,44.0,-100.00,NE,55,9.0,20.0,27,0.00,,,0.00,625.000000,,2013-01-08 21:33:00,
2013-01-08 11:42:00,81.0,44.0,-100.00,NE,55,9.0,20.0,27,0.00,,,0.00,625.000000,,2013-01-08 21:42:00,
2013-01-08 12:12:00,80.0,48.0,-100.00,East,99,12.0,26.0,33,0.00,,,0.00,737.000000,,2013-01-08 22:12:00,
2013-01-08 12:22:00,80.0,48.0,-100.00,East,99,12.0,26.0,33,0.00,,,0.00,737.000000,,2013-01-08 22:22:00,
2013-01-08 12:32:00,80.0,48.0,-100.00,East,99,12.0,26.0,33,0.00,,,0.00,737.000000,,2013-01-08 22:32:00,
2013-01-08 12:42:00,80.0,48.0,-100.00,East,99,12.0,26.0,33,0.00,,,0.00,737.000000,,2013-01-08 22:42:00,
2013-01-08 13:12:00,81.0,47.0,-100.00,ENE,76,13.0,24.0,31,0.00,,,0.00,780.000000,,2013-01-08 23:12:00,
2013-01-08 13:22:00,81.0,47.0,-100.00,ENE,76,13.0,24.0,31,0.00,,,0.00,780.000000,,2013-01-08 23:22:00,
2013-01-08 13:32:00,81.0,47.0,-100.00,ENE,76,13.0,24.0,31,0.00,,,0.00,780.000000,,2013-01-08 23:32:00,
2013-01-08 13:42:00,81.0,47.0,-100.00,ENE,76,13.0,24.0,31,0.00,,,0.00,780.000000,,2013-01-08 23:42:00,
2013-01-08 14:12:00,78.0,57.0,-100.00,East,99,12.0,23.0,49,0.00,,,0.00,747.000000,,2013-01-09 00:12:00,
2013-01-08 14:22:00,78.0,57.0,-100.00,East,99,12.0,23.0,49,0.00,,,0.00,747.000000,,2013-01-09 00:22:00,
2013-01-08 14:32:00,78.0,57.0,-100.00,East,99,12.0,23.0,49,0.00,,,0.00,747.000000,,2013-01-09 00:32:00,
2013-01-08 14:42:00,78.0,57.0,-100.00,East,99,12.0,23.0,49,0.00,,,0.00,747.000000,,2013-01-09 00:42:00,
2013-01-08 15:12:00,81.0,56.0,-100.00,NE,54,12.0,27.0,42,0.00,,,0.00,660.000000,,2013-01-09 01:12:00,
2013-01-08 15:22:00,81.0,56.0,-100.00,NE,54,12.0,27.0,42,0.00,,,0.00,660.000000,,2013-01-09 01:22:00,
2013-01-08 15:32:00,81.0,56.0,-100.00,NE,54,12.0,27.0,42,0.00,,,0.00,660.000000,,2013-01-09 01:32:00,
2013-01-08 15:42:00,81.0,56.0,-100.00,NE,54,12.0,27.0,42,0.00,,,0.00,660.000000,,2013-01-09 01:42:00,
2013-01-08 16:12:00,79.0,55.0,-100.00,ENE,66,11.0,24.0,43,0.00,,,0.00,509.000000,,2013-01-09 02:12:00,
2013-01-08 16:22:00,79.0,55.0,-100.00,ENE,66,11.0,24.0,43,0.00,,,0.00,509.000000,,2013-01-09 02:22:00,
2013-01-08 16:32:00,79.0,55.0,-100.00,ENE,66,11.0,24.0,43,0.00,,,0.00,509.000000,,2013-01-09 02:32:00,
2013-01-08 16:42:00,79.0,55.0,-100.00,ENE,66,11.0,24.0,43,0.00,,,0.00,509.000000,,2013-01-09 02:42:00,
2013-01-08 17:12:00,78.0,54.0,-100.00,ENE,59,12.0,25.0,43,0.00,,,0.00,316.000000,,2013-01-09 03:12:00,
2013-01-08 17:22:00,78.0,54.0,-100.00,ENE,59,12.0,25.0,43,0.00,,,0.00,316.000000,,2013-01-09 03:22:00,
2013-01-08 17:32:00,78.0,54.0,-100.00,ENE,59,12.0,25.0,43,0.00,,,0.00,316.000000,,2013-01-09 03:32:00,
2013-01-08 17:42:00,78.0,54.0,-100.00,ENE,59,12.0,25.0,43,0.00,,,0.00,316.000000,,2013-01-09 03:42:00,
2013-01-08 18:12:00,74.0,51.0,-100.00,ENE,63,8.0,22.0,45,0.00,,,0.00,110.000000,,2013-01-09 04:12:00,
2013-01-08 18:22:00,74.0,51.0,-100.00,ENE,63,8.0,22.0,45,0.00,,,0.00,110.000000,,2013-01-09 04:22:00,
2013-01-08 18:32:00,74.0,51.0,-100.00,ENE,63,8.0,22.0,45,0.00,,,0.00,110.000000,,2013-01-09 04:32:00,
2013-01-08 18:42:00,74.0,51.0,-100.00,ENE,63,8.0,22.0,45,0.00,,,0.00,110.000000,,2013-01-09 04:42:00,
2013-01-08 19:12:00,72.0,49.0,-100.00,NE,55,6.0,17.0,45,0.00,,,0.00,2.000000,,2013-01-09 05:12:00,
2013-01-08 19:22:00,72.0,49.0,-100.00,NE,55,6.0,17.0,45,0.00,,,0.00,2.000000,,2013-01-09 05:22:00,
2013-01-08 19:33:00,72.0,49.0,-100.00,NE,55,6.0,17.0,45,0.00,,,0.00,2.000000,,2013-01-09 05:33:00,
2013-01-08 19:42:00,72.0,49.0,-100.00,NE,55,6.0,17.0,45,0.00,,,0.00,2.000000,,2013-01-09 05:42:00,
2013-01-08 20:12:00,67.0,51.0,-100.00,NNW,332,5.0,15.0,57,0.00,,,0.00,0.000000,,2013-01-09 06:12:00,
2013-01-08 20:22:00,67.0,51.0,-100.00,NNW,332,5.0,15.0,57,0.00,,,0.00,0.000000,,2013-01-09 06:22:00,
2013-01-08 20:32:00,67.0,51.0,-100.00,NNW,332,5.0,15.0,57,0.00,,,0.00,0.000000,,2013-01-09 06:32:00,
2013-01-08 20:42:00,67.0,51.0,-100.00,NNW,332,5.0,15.0,57,0.00,,,0.00,0.000000,,2013-01-09 06:42:00,
2013-01-08 21:12:00,62.0,51.0,-100.00,North,349,5.0,9.0,68,0.00,,,0.00,0.000000,,2013-01-09 07:12:00,
2013-01-08 21:22:00,62.0,51.0,-100.00,North,349,5.0,9.0,68,0.00,,,0.00,0.000000,,2013-01-09 07:22:00,
2013-01-08 21:32:00,62.0,51.0,-100.00,North,349,5.0,9.0,68,0.00,,,0.00,0.000000,,2013-01-09 07:32:00,
2013-01-08 21:42:00,62.0,51.0,-100.00,North,349,5.0,9.0,68,0.00,,,0.00,0.000000,,2013-01-09 07:42:00,
2013-01-08 22:12:00,62.0,52.0,-100.00,NNW,340,4.0,10.0,70,0.00,,,-99.99,0.000000,,2013-01-09 08:12:00,
2013-01-08 22:22:00,62.0,52.0,-100.00,NNW,340,4.0,10.0,70,0.00,,,-99.99,0.000000,,2013-01-09 08:22:00,
2013-01-08 22:32:00,62.0,52.0,-100.00,NNW,340,4.0,10.0,70,0.00,,,-99.99,0.000000,,2013-01-09 08:32:00,
2013-01-08 22:42:00,62.0,52.0,-100.00,NNW,340,4.0,10.0,70,0.00,,,-99.99,0.000000,,2013-01-09 08:42:00,
2013-01-08 23:12:00,66.0,53.0,-100.00,North,5,8.0,11.0,62,0.00,,,0.00,0.000000,,2013-01-09 09:12:00,
2013-01-08 23:22:00,66.0,53.0,-100.00,North,5,8.0,11.0,62,0.00,,,0.00,0.000000,,2013-01-09 09:22:00,
2013-01-08 23:32:00,66.0,53.0,-100.00,North,5,8.0,11.0,62,0.00,,,0.00,0.000000,,2013-01-09 09:32:00,
2013-01-08 23:42:00,66.0,53.0,-100.00,North,5,8.0,11.0,62,0.00,,,0.00,0.000000,,2013-01-09 09:42:00,